Time;durP1;ratioP1;P1;durP2;ratioP2;P2;SDS_P1;SDS_P2;PMS_P1;PMS_P2;Temp;Humidity;BMP_temperature;BMP_pressure;BME280_temperature;BME280_humidity;BME280_pressure;Samples;Min_cycle;Max_cycle;Signal;HPM_P1;HPM_P2
2022/03/31 00:00:18;;;;;;;10.67;3.90;;;;;;;;;;5019061;28;20192;-66
2022/03/31 00:02:44;;;;;;;7.30;3.73;;;;;;;;;;5021006;28;20182;-66
2022/03/31 00:05:10;;;;;;;9.60;3.90;;;;;;;;;;5022151;28;20191;-66
2022/03/31 00:07:57;;;;;;;9.73;4.13;;;;;;;;;;5025766;28;20174;-66
2022/03/31 00:10:44;;;;;;;9.37;4.27;;;;;;;;;;5021860;28;20182;-66
2022/03/31 00:13:12;;;;;;;5.87;3.40;;;;;;;;;;5026720;28;20197;-67
2022/03/31 00:15:38;;;;;;;8.03;3.50;;;;;;;;;;5021251;28;20220;-67
2022/03/31 00:18:05;;;;;;;9.33;3.77;;;;;;;;;;5025384;28;20250;-66
2022/03/31 00:33:58;;;;;;;7.30;2.67;;;;;;;;;;5025342;28;20201;-66
2022/03/31 00:36:23;;;;;;;7.80;3.23;;;;;;;;;;5024762;28;20214;-66
2022/03/31 00:41:37;;;;;;;6.23;3.27;;;;;;;;;;5024408;28;20193;-66
2022/03/31 00:44:04;;;;;;;9.40;3.20;;;;;;;;;;5024705;28;20186;-66
2022/03/31 00:46:30;;;;;;;8.17;3.57;;;;;;;;;;5018973;28;20609;-66
2022/03/31 00:48:55;;;;;;;7.10;3.53;;;;;;;;;;5026979;28;20182;-66
2022/03/31 00:51:20;;;;;;;8.07;3.63;;;;;;;;;;5021375;28;20236;-66
2022/03/31 00:53:46;;;;;;;8.10;3.30;;;;;;;;;;5026192;28;20178;-66
2022/03/31 00:56:12;;;;;;;8.93;3.10;;;;;;;;;;5007803;28;20210;-66
2022/03/31 00:58:39;;;;;;;4.47;2.97;;;;;;;;;;5021970;28;20224;-66
2022/03/31 01:01:04;;;;;;;6.37;2.80;;;;;;;;;;5017024;28;20218;-66
2022/03/31 01:03:30;;;;;;;7.93;3.43;;;;;;;;;;5026254;28;20221;-65
2022/03/31 01:05:56;;;;;;;6.70;3.53;;;;;;;;;;5026187;28;20437;-67
2022/03/31 01:08:21;;;;;;;6.30;3.13;;;;;;;;;;5027720;28;20182;-67
2022/03/31 01:10:49;;;;;;;7.63;3.73;;;;;;;;;;5024948;28;20217;-67
2022/03/31 01:13:15;;;;;;;6.87;3.77;;;;;;;;;;5024760;28;20295;-67
2022/03/31 01:15:41;;;;;;;6.27;3.77;;;;;;;;;;5024203;28;20590;-67
2022/03/31 01:18:06;;;;;;;9.03;3.33;;;;;;;;;;5026280;28;20210;-67
2022/03/31 01:20:33;;;;;;;7.70;3.83;;;;;;;;;;5020415;28;20266;-66
2022/03/31 01:22:59;;;;;;;8.93;3.90;;;;;;;;;;5025385;28;20733;-67
2022/03/31 01:25:26;;;;;;;5.83;3.07;;;;;;;;;;5028494;28;20193;-67
2022/03/31 01:27:51;;;;;;;8.53;3.47;;;;;;;;;;5018648;28;20593;-67
2022/03/31 01:30:22;;;;;;;9.17;3.97;;;;;;;;;;5026498;28;20185;-67
2022/03/31 01:32:49;;;;;;;12.10;4.20;;;;;;;;;;5015903;28;20190;-68
2022/03/31 01:35:16;;;;;;;5.37;3.50;;;;;;;;;;5019657;28;20261;-66
2022/03/31 01:37:42;;;;;;;6.60;3.90;;;;;;;;;;5027626;28;20205;-66
2022/03/31 01:40:09;;;;;;;9.50;3.43;;;;;;;;;;5021565;28;20545;-68
2022/03/31 01:42:35;;;;;;;9.10;2.27;;;;;;;;;;5019565;28;20563;-67
2022/03/31 01:45:01;;;;;;;5.00;2.37;;;;;;;;;;5017735;28;20197;-67
2022/03/31 01:47:27;;;;;;;8.83;2.73;;;;;;;;;;5026761;28;20273;-67
2022/03/31 01:49:53;;;;;;;5.57;2.60;;;;;;;;;;5018760;28;20321;-67
2022/03/31 01:52:19;;;;;;;4.47;2.73;;;;;;;;;;5025259;28;20186;-67
2022/03/31 01:54:44;;;;;;;7.40;2.63;;;;;;;;;;5026244;28;20250;-67
2022/03/31 01:57:10;;;;;;;5.40;2.50;;;;;;;;;;5027239;28;20206;-68
2022/03/31 01:59:42;;;;;;;7.07;3.03;;;;;;;;;;5025461;28;21102;-68
2022/03/31 02:02:10;;;;;;;6.37;2.27;;;;;;;;;;5024020;28;20214;-67
2022/03/31 02:04:36;;;;;;;4.30;2.73;;;;;;;;;;5020522;28;20178;-67
2022/03/31 02:07:01;;;;;;;3.03;2.13;;;;;;;;;;5026244;28;20724;-67
2022/03/31 02:09:27;;;;;;;4.63;2.33;;;;;;;;;;5021203;28;20225;-67
2022/03/31 02:11:53;;;;;;;4.53;2.90;;;;;;;;;;5021267;28;20192;-67
2022/03/31 02:14:19;;;;;;;6.70;2.30;;;;;;;;;;5018798;28;20252;-67
2022/03/31 02:16:46;;;;;;;5.07;2.53;;;;;;;;;;5015150;28;20205;-67
2022/03/31 02:19:11;;;;;;;4.63;3.00;;;;;;;;;;5017798;28;20190;-67
2022/03/31 02:21:37;;;;;;;9.27;3.00;;;;;;;;;;5022539;28;20190;-68
2022/03/31 02:24:03;;;;;;;3.40;2.03;;;;;;;;;;5022998;28;20186;-68
2022/03/31 02:26:28;;;;;;;2.93;1.90;;;;;;;;;;5025971;28;20185;-68
2022/03/31 02:28:54;;;;;;;3.90;2.30;;;;;;;;;;5025157;28;20232;-67
2022/03/31 02:31:19;;;;;;;7.30;2.30;;;;;;;;;;5010613;28;20670;-67
2022/03/31 02:33:45;;;;;;;4.67;2.43;;;;;;;;;;5024126;28;20567;-67
2022/03/31 02:36:11;;;;;;;4.13;2.73;;;;;;;;;;5025425;28;20185;-67
2022/03/31 02:38:36;;;;;;;6.60;2.30;;;;;;;;;;5025929;28;20186;-67
2022/03/31 02:41:05;;;;;;;4.90;2.53;;;;;;;;;;5019076;28;20189;-69
2022/03/31 02:43:31;;;;;;;4.17;2.33;;;;;;;;;;5025557;28;20258;-69
2022/03/31 02:45:57;;;;;;;3.43;2.07;;;;;;;;;;5026632;28;20197;-71
2022/03/31 02:48:23;;;;;;;4.97;1.93;;;;;;;;;;5030757;28;20569;-71
2022/03/31 02:50:48;;;;;;;4.60;2.37;;;;;;;;;;5014428;28;20368;-70
2022/03/31 02:55:57;;;;;;;4.43;2.17;;;;;;;;;;5022868;28;20667;-70
2022/03/31 02:58:22;;;;;;;3.80;2.43;;;;;;;;;;5015176;28;20190;-70
2022/03/31 03:00:48;;;;;;;4.53;2.57;;;;;;;;;;5023271;28;20555;-71
2022/03/31 03:03:14;;;;;;;4.53;2.53;;;;;;;;;;5029581;28;20489;-70
2022/03/31 03:05:42;;;;;;;6.47;2.67;;;;;;;;;;5029696;28;20233;-70
2022/03/31 03:08:07;;;;;;;5.47;3.00;;;;;;;;;;5026932;28;20186;-70
2022/03/31 03:10:33;;;;;;;6.00;3.07;;;;;;;;;;5026506;28;20201;-70
2022/03/31 03:12:59;;;;;;;5.90;2.90;;;;;;;;;;5027903;28;20209;-70
2022/03/31 03:15:27;;;;;;;7.80;3.07;;;;;;;;;;5028965;28;20231;-70
2022/03/31 03:17:52;;;;;;;4.77;2.93;;;;;;;;;;5029679;28;20206;-70
2022/03/31 03:20:18;;;;;;;8.43;3.57;;;;;;;;;;5018229;28;20182;-70
2022/03/31 03:22:49;;;;;;;6.47;3.20;;;;;;;;;;5021550;28;20183;-70
2022/03/31 03:25:18;;;;;;;5.27;3.07;;;;;;;;;;5029231;28;20501;-69
2022/03/31 03:27:43;;;;;;;6.13;3.00;;;;;;;;;;5020371;28;20179;-69
2022/03/31 03:30:09;;;;;;;6.83;3.03;;;;;;;;;;5026784;28;20689;-69
2022/03/31 03:32:38;;;;;;;7.63;3.20;;;;;;;;;;5012363;28;20566;-69
2022/03/31 03:35:05;;;;;;;6.00;3.07;;;;;;;;;;5025606;28;20186;-69
2022/03/31 03:37:30;;;;;;;6.80;2.80;;;;;;;;;;5020769;28;20316;-69
2022/03/31 03:39:56;;;;;;;5.63;2.97;;;;;;;;;;5026336;28;20190;-68
2022/03/31 03:42:22;;;;;;;4.17;2.80;;;;;;;;;;5029237;28;20563;-69
2022/03/31 03:44:47;;;;;;;6.43;2.60;;;;;;;;;;5027273;28;20183;-68
2022/03/31 03:47:13;;;;;;;4.10;2.77;;;;;;;;;;5012443;28;20729;-67
2022/03/31 03:49:38;;;;;;;6.97;3.40;;;;;;;;;;5025304;28;20182;-68
2022/03/31 03:52:04;;;;;;;4.97;2.67;;;;;;;;;;5014123;28;20209;-67
2022/03/31 03:54:30;;;;;;;6.03;2.87;;;;;;;;;;5028546;28;20602;-67
2022/03/31 03:56:55;;;;;;;6.07;3.10;;;;;;;;;;5017669;28;20624;-68
2022/03/31 03:59:21;;;;;;;7.63;3.40;;;;;;;;;;5023086;28;20278;-67
2022/03/31 04:01:47;;;;;;;6.77;3.53;;;;;;;;;;5028612;28;20198;-68
2022/03/31 04:04:12;;;;;;;7.53;3.20;;;;;;;;;;5022502;28;20206;-66
2022/03/31 04:06:38;;;;;;;5.00;2.87;;;;;;;;;;5026190;28;20272;-68
2022/03/31 04:09:03;;;;;;;6.27;3.13;;;;;;;;;;5028319;28;20564;-68
2022/03/31 04:11:29;;;;;;;5.67;3.30;;;;;;;;;;5020079;28;20240;-69
2022/03/31 04:13:54;;;;;;;6.30;3.23;;;;;;;;;;5026337;28;20277;-69
2022/03/31 04:16:19;;;;;;;6.80;3.70;;;;;;;;;;5024180;28;20201;-69
2022/03/31 04:18:45;;;;;;;5.97;3.43;;;;;;;;;;5029070;28;20245;-69
2022/03/31 04:21:10;;;;;;;8.23;3.73;;;;;;;;;;5021142;28;20192;-70
2022/03/31 04:23:36;;;;;;;7.50;3.57;;;;;;;;;;5016198;28;20187;-70
2022/03/31 04:26:02;;;;;;;5.83;3.80;;;;;;;;;;5021989;28;20192;-71
2022/03/31 04:28:27;;;;;;;8.87;4.10;;;;;;;;;;5023548;28;20520;-70
2022/03/31 04:30:54;;;;;;;6.73;3.87;;;;;;;;;;5024065;28;20652;-71
2022/03/31 04:33:20;;;;;;;8.93;4.30;;;;;;;;;;5027113;28;20182;-70
2022/03/31 04:35:45;;;;;;;8.07;3.90;;;;;;;;;;5018170;28;20283;-69
2022/03/31 04:38:10;;;;;;;8.57;4.37;;;;;;;;;;5023787;28;20260;-70
2022/03/31 04:40:36;;;;;;;6.57;3.87;;;;;;;;;;5020058;28;20239;-70
2022/03/31 04:43:01;;;;;;;7.33;4.33;;;;;;;;;;5027177;28;20261;-70
2022/03/31 04:45:27;;;;;;;9.37;4.93;;;;;;;;;;5027153;28;20593;-71
2022/03/31 04:47:52;;;;;;;8.87;4.67;;;;;;;;;;5027587;28;20197;-71
2022/03/31 04:50:17;;;;;;;9.90;4.93;;;;;;;;;;5028449;28;20178;-71
2022/03/31 04:52:43;;;;;;;9.43;5.17;;;;;;;;;;5021915;28;20189;-71
2022/03/31 04:55:09;;;;;;;10.10;5.13;;;;;;;;;;5026605;28;20545;-71
2022/03/31 04:57:34;;;;;;;9.00;4.83;;;;;;;;;;5021261;28;20569;-71
2022/03/31 05:00:00;;;;;;;9.30;5.07;;;;;;;;;;5026846;28;20175;-71
2022/03/31 05:02:25;;;;;;;10.43;5.73;;;;;;;;;;5021181;28;20189;-71
2022/03/31 05:04:51;;;;;;;11.30;6.03;;;;;;;;;;5025046;28;20628;-70
2022/03/31 05:07:17;;;;;;;10.43;5.67;;;;;;;;;;5019428;28;20594;-70
2022/03/31 05:09:42;;;;;;;8.77;5.00;;;;;;;;;;5024856;28;20186;-71
2022/03/31 05:12:08;;;;;;;9.97;5.67;;;;;;;;;;5017148;28;20249;-69
2022/03/31 05:14:35;;;;;;;10.63;5.63;;;;;;;;;;5024658;28;20193;-69
2022/03/31 05:17:01;;;;;;;11.20;5.63;;;;;;;;;;5024905;28;20295;-69
2022/03/31 05:19:26;;;;;;;12.10;6.57;;;;;;;;;;5021355;28;20190;-68
2022/03/31 05:21:51;;;;;;;11.87;6.50;;;;;;;;;;5022623;28;20201;-68
2022/03/31 05:24:17;;;;;;;11.97;6.13;;;;;;;;;;5021904;28;20197;-68
2022/03/31 05:26:42;;;;;;;12.83;7.53;;;;;;;;;;5019428;28;20189;-68
2022/03/31 05:29:08;;;;;;;13.73;6.93;;;;;;;;;;5023011;28;20545;-68
2022/03/31 05:31:33;;;;;;;14.97;6.33;;;;;;;;;;5024138;28;20198;-69
2022/03/31 05:33:58;;;;;;;16.27;7.97;;;;;;;;;;5023764;28;20197;-69
2022/03/31 05:36:24;;;;;;;14.07;7.30;;;;;;;;;;5023072;28;20775;-70
2022/03/31 05:38:49;;;;;;;18.83;8.17;;;;;;;;;;5024041;28;20178;-70
2022/03/31 05:41:14;;;;;;;15.43;7.70;;;;;;;;;;5021708;28;20299;-70
2022/03/31 05:43:40;;;;;;;13.23;6.63;;;;;;;;;;5018353;28;20696;-70
2022/03/31 05:46:05;;;;;;;16.03;7.80;;;;;;;;;;5026258;28;20174;-71
2022/03/31 05:48:31;;;;;;;17.70;8.47;;;;;;;;;;5022059;28;20435;-70
2022/03/31 05:50:56;;;;;;;16.47;8.43;;;;;;;;;;5014675;28;20190;-72
2022/03/31 05:53:22;;;;;;;16.80;7.77;;;;;;;;;;5019225;28;20560;-70
2022/03/31 05:55:47;;;;;;;23.07;8.27;;;;;;;;;;5016939;28;20576;-70
2022/03/31 05:58:13;;;;;;;15.07;8.43;;;;;;;;;;5009768;28;20237;-70
2022/03/31 06:00:39;;;;;;;14.67;8.57;;;;;;;;;;5016285;28;20582;-71
2022/03/31 06:03:06;;;;;;;16.83;8.47;;;;;;;;;;5024667;28;20185;-70
2022/03/31 06:05:32;;;;;;;14.27;7.47;;;;;;;;;;5022011;28;20229;-70
2022/03/31 06:07:57;;;;;;;15.37;7.97;;;;;;;;;;5012188;28;20179;-71
2022/03/31 06:10:22;;;;;;;15.57;7.77;;;;;;;;;;5022849;28;20224;-69
2022/03/31 06:12:48;;;;;;;16.10;7.73;;;;;;;;;;5021048;28;20533;-70
2022/03/31 06:15:15;;;;;;;13.20;7.50;;;;;;;;;;5013146;28;20182;-71
2022/03/31 06:17:42;;;;;;;15.07;7.93;;;;;;;;;;5017704;28;20266;-71
2022/03/31 06:20:09;;;;;;;15.97;8.47;;;;;;;;;;5022360;28;20178;-73
2022/03/31 06:22:34;;;;;;;16.00;8.33;;;;;;;;;;5021714;28;20230;-74
2022/03/31 06:25:00;;;;;;;15.00;7.97;;;;;;;;;;5019124;28;20206;-74
2022/03/31 06:27:25;;;;;;;15.00;8.10;;;;;;;;;;5021131;28;20178;-74
2022/03/31 06:29:52;;;;;;;14.23;8.10;;;;;;;;;;5022100;28;20190;-73
2022/03/31 06:32:18;;;;;;;13.73;7.50;;;;;;;;;;5018978;28;20237;-72
2022/03/31 06:34:43;;;;;;;13.27;7.13;;;;;;;;;;5020356;28;20213;-73
2022/03/31 06:37:09;;;;;;;13.53;7.83;;;;;;;;;;5019890;28;20198;-72
2022/03/31 06:39:35;;;;;;;14.27;7.47;;;;;;;;;;5016825;28;20664;-74
2022/03/31 06:42:00;;;;;;;14.43;8.37;;;;;;;;;;5020333;28;20380;-74
2022/03/31 06:44:26;;;;;;;17.57;8.70;;;;;;;;;;5017888;28;20323;-72
2022/03/31 06:46:51;;;;;;;15.57;8.90;;;;;;;;;;5021028;28;20206;-74
2022/03/31 06:49:17;;;;;;;16.03;8.60;;;;;;;;;;5022988;28;20189;-74
2022/03/31 06:51:46;;;;;;;14.53;8.37;;;;;;;;;;5021621;28;20185;-73
2022/03/31 06:54:11;;;;;;;18.83;9.30;;;;;;;;;;5023835;28;20186;-72
2022/03/31 06:56:37;;;;;;;16.93;9.00;;;;;;;;;;5022270;28;20217;-72
2022/03/31 06:59:03;;;;;;;15.97;9.47;;;;;;;;;;5022039;28;20273;-73
2022/03/31 07:01:29;;;;;;;14.43;8.53;;;;;;;;;;5020243;28;20217;-73
2022/03/31 07:03:54;;;;;;;16.00;9.17;;;;;;;;;;5020977;28;20200;-72
2022/03/31 07:06:22;;;;;;;15.27;8.77;;;;;;;;;;5024569;28;20236;-73
2022/03/31 07:08:47;;;;;;;15.77;8.60;;;;;;;;;;5023877;28;20578;-73
2022/03/31 07:11:13;;;;;;;15.83;8.43;;;;;;;;;;5025175;28;20182;-72
2022/03/31 07:13:39;;;;;;;15.10;9.07;;;;;;;;;;5024536;28;20592;-72
2022/03/31 07:16:05;;;;;;;16.00;8.40;;;;;;;;;;5024873;28;20548;-72
2022/03/31 07:18:31;;;;;;;15.10;8.70;;;;;;;;;;5022174;28;20285;-72
2022/03/31 07:20:59;;;;;;;16.47;8.50;;;;;;;;;;5024967;28;20561;-71
2022/03/31 07:23:26;;;;;;;15.83;8.97;;;;;;;;;;5015115;28;20183;-71
2022/03/31 07:25:53;;;;;;;14.57;8.60;;;;;;;;;;5025093;28;20170;-72
2022/03/31 07:28:19;;;;;;;17.67;9.37;;;;;;;;;;5023764;28;20485;-70
2022/03/31 07:30:45;;;;;;;15.67;8.67;;;;;;;;;;5014625;28;20207;-70
2022/03/31 07:33:10;;;;;;;17.70;10.03;;;;;;;;;;5025087;28;20185;-70
2022/03/31 07:35:37;;;;;;;15.90;10.00;;;;;;;;;;5026394;28;20190;-70
2022/03/31 07:38:07;;;;;;;14.73;9.60;;;;;;;;;;5026948;28;20578;-69
2022/03/31 07:40:33;;;;;;;16.50;9.60;;;;;;;;;;5027962;28;20170;-69
2022/03/31 07:42:59;;;;;;;17.93;10.77;;;;;;;;;;5026366;28;20276;-69
2022/03/31 07:45:25;;;;;;;16.77;9.53;;;;;;;;;;5028153;28;20651;-69
2022/03/31 07:47:50;;;;;;;19.07;11.27;;;;;;;;;;5014316;28;20179;-69
2022/03/31 07:50:18;;;;;;;17.03;10.03;;;;;;;;;;5015791;28;20182;-69
2022/03/31 07:52:44;;;;;;;20.10;10.83;;;;;;;;;;5028009;28;20185;-69
2022/03/31 07:55:11;;;;;;;20.30;11.10;;;;;;;;;;5027581;28;20174;-69
2022/03/31 07:57:38;;;;;;;20.53;11.60;;;;;;;;;;5025698;28;20225;-69
2022/03/31 08:00:04;;;;;;;21.93;11.53;;;;;;;;;;5025742;28;20182;-69
2022/03/31 08:02:30;;;;;;;19.47;10.97;;;;;;;;;;5027485;28;20181;-69
2022/03/31 08:04:55;;;;;;;22.60;12.00;;;;;;;;;;5026349;28;20182;-69
2022/03/31 08:07:21;;;;;;;25.57;12.40;;;;;;;;;;5019881;28;20223;-68
2022/03/31 08:09:46;;;;;;;23.83;12.90;;;;;;;;;;5026103;28;20205;-68
2022/03/31 08:12:12;;;;;;;24.20;12.37;;;;;;;;;;5024297;28;20186;-68
2022/03/31 08:14:37;;;;;;;22.93;12.70;;;;;;;;;;5027414;28;20180;-68
2022/03/31 08:17:03;;;;;;;24.53;12.30;;;;;;;;;;5026705;28;20222;-68
2022/03/31 08:19:32;;;;;;;26.73;13.37;;;;;;;;;;5027261;28;20585;-68
2022/03/31 08:22:01;;;;;;;28.40;13.73;;;;;;;;;;5027504;28;20205;-68
2022/03/31 08:24:26;;;;;;;26.73;13.83;;;;;;;;;;5020685;28;20287;-68
2022/03/31 08:26:52;;;;;;;27.67;13.17;;;;;;;;;;5027567;28;20244;-68
2022/03/31 08:29:18;;;;;;;31.07;14.23;;;;;;;;;;5027733;28;20190;-68
2022/03/31 08:31:43;;;;;;;30.93;14.67;;;;;;;;;;5028716;28;20292;-68
2022/03/31 08:34:08;;;;;;;28.30;14.37;;;;;;;;;;5026212;28;20633;-68
2022/03/31 08:36:34;;;;;;;29.60;14.20;;;;;;;;;;5028098;28;20670;-68
2022/03/31 08:39:00;;;;;;;28.80;14.40;;;;;;;;;;5024266;28;20182;-68
2022/03/31 08:41:28;;;;;;;31.10;15.30;;;;;;;;;;5029179;28;20236;-68
2022/03/31 08:43:54;;;;;;;27.73;14.70;;;;;;;;;;5026027;28;20272;-68
2022/03/31 08:46:21;;;;;;;28.30;14.60;;;;;;;;;;5022753;28;20187;-67
2022/03/31 08:48:46;;;;;;;32.10;14.50;;;;;;;;;;5019570;28;20520;-68
2022/03/31 08:51:11;;;;;;;33.30;15.93;;;;;;;;;;5027376;28;20178;-68
2022/03/31 08:53:37;;;;;;;28.97;15.50;;;;;;;;;;5025184;28;20190;-68
2022/03/31 08:56:03;;;;;;;30.53;15.87;;;;;;;;;;5021366;28;20220;-68
2022/03/31 08:58:29;;;;;;;29.90;14.97;;;;;;;;;;5013769;28;20229;-68
2022/03/31 09:00:54;;;;;;;26.77;15.13;;;;;;;;;;5026350;28;20217;-68
2022/03/31 09:03:20;;;;;;;30.27;15.50;;;;;;;;;;5023793;28;20264;-68
2022/03/31 09:05:52;;;;;;;28.20;14.73;;;;;;;;;;5024690;28;20265;-70
2022/03/31 09:08:18;;;;;;;29.20;14.47;;;;;;;;;;5025365;28;20594;-68
2022/03/31 09:10:47;;;;;;;30.83;15.77;;;;;;;;;;5025067;28;20265;-68
2022/03/31 09:13:24;;;;;;;27.47;15.03;;;;;;;;;;5020515;28;20198;-69
2022/03/31 09:16:01;;;;;;;32.87;15.17;;;;;;;;;;5026592;28;20208;-68
2022/03/31 09:18:29;;;;;;;30.67;15.87;;;;;;;;;;5027076;28;20216;-68
2022/03/31 09:20:57;;;;;;;36.97;18.17;;;;;;;;;;5027037;28;20190;-68
2022/03/31 09:23:28;;;;;;;33.53;16.80;;;;;;;;;;5023822;28;20182;-68
2022/03/31 09:26:03;;;;;;;34.53;16.57;;;;;;;;;;5026466;28;20244;-68
2022/03/31 09:28:30;;;;;;;31.43;15.50;;;;;;;;;;5023904;28;20657;-68
2022/03/31 09:30:56;;;;;;;32.13;16.77;;;;;;;;;;5024714;28;20206;-68
2022/03/31 09:33:32;;;;;;;31.03;17.20;;;;;;;;;;5024815;28;20544;-68
2022/03/31 09:36:13;;;;;;;32.27;16.80;;;;;;;;;;5022858;28;20197;-68
2022/03/31 09:38:43;;;;;;;33.63;16.80;;;;;;;;;;5024179;28;20645;-68
2022/03/31 09:41:32;;;;;;;30.47;16.17;;;;;;;;;;5026883;28;20566;-68
2022/03/31 09:44:00;;;;;;;31.93;16.33;;;;;;;;;;5023056;28;20279;-68
2022/03/31 09:46:27;;;;;;;33.73;18.27;;;;;;;;;;5023133;28;20206;-68
2022/03/31 09:48:54;;;;;;;33.37;18.03;;;;;;;;;;5025859;28;20182;-68
2022/03/31 09:51:21;;;;;;;33.50;17.93;;;;;;;;;;5025495;28;20189;-68
2022/03/31 09:53:48;;;;;;;34.77;17.87;;;;;;;;;;5024439;28;20182;-68
2022/03/31 09:56:16;;;;;;;33.30;16.87;;;;;;;;;;5022493;28;20178;-69
2022/03/31 09:58:44;;;;;;;31.97;17.47;;;;;;;;;;5025196;28;20205;-68
2022/03/31 10:01:09;;;;;;;29.83;15.73;;;;;;;;;;5025252;28;20189;-68
2022/03/31 10:03:38;;;;;;;33.47;17.90;;;;;;;;;;5024076;28;20282;-68
2022/03/31 10:06:03;;;;;;;32.03;17.47;;;;;;;;;;5024103;28;20340;-68
2022/03/31 10:08:32;;;;;;;34.17;17.50;;;;;;;;;;5023201;28;20265;-67
2022/03/31 10:10:58;;;;;;;31.63;16.37;;;;;;;;;;5013910;28;20194;-67
2022/03/31 10:13:32;;;;;;;37.47;17.63;;;;;;;;;;5023190;28;20272;-67
2022/03/31 10:16:08;;;;;;;33.67;16.67;;;;;;;;;;5024612;28;20486;-67
2022/03/31 10:18:34;;;;;;;34.30;17.33;;;;;;;;;;5025763;28;20206;-69
2022/03/31 10:21:00;;;;;;;33.30;18.87;;;;;;;;;;5024877;28;20174;-68
2022/03/31 10:26:27;;;;;;;29.40;17.43;;;;;;;;;;5024598;28;20260;-68
2022/03/31 10:28:58;;;;;;;27.93;16.63;;;;;;;;;;5025954;28;20196;-68
2022/03/31 10:31:37;;;;;;;28.87;17.57;;;;;;;;;;5025252;28;20649;-68
2022/03/31 10:34:05;;;;;;;29.67;15.97;;;;;;;;;;5023306;28;20289;-68
2022/03/31 10:36:47;;;;;;;33.57;18.07;;;;;;;;;;5024001;28;20189;-68
2022/03/31 10:39:31;;;;;;;32.57;17.53;;;;;;;;;;5021513;28;20182;-68
2022/03/31 10:42:02;;;;;;;30.30;16.60;;;;;;;;;;5023507;28;20323;-68
2022/03/31 10:44:27;;;;;;;30.30;17.13;;;;;;;;;;5020270;28;20278;-68
2022/03/31 10:47:05;;;;;;;33.00;17.80;;;;;;;;;;5024219;28;20248;-68
2022/03/31 10:49:31;;;;;;;32.67;18.70;;;;;;;;;;5024276;28;20362;-68
2022/03/31 10:51:58;;;;;;;30.57;18.00;;;;;;;;;;5023665;28;20193;-68
2022/03/31 10:54:28;;;;;;;30.83;16.50;;;;;;;;;;5023974;28;20215;-68
2022/03/31 10:57:15;;;;;;;29.93;16.57;;;;;;;;;;5020380;28;20232;-68
2022/03/31 10:59:43;;;;;;;27.73;16.20;;;;;;;;;;5023942;28;20275;-68
2022/03/31 11:02:22;;;;;;;26.60;14.90;;;;;;;;;;5022432;28;20186;-68
2022/03/31 11:04:53;;;;;;;24.27;14.10;;;;;;;;;;5021285;28;20186;-68
2022/03/31 11:07:24;;;;;;;26.47;15.47;;;;;;;;;;5021442;28;20244;-68
2022/03/31 11:10:02;;;;;;;24.90;15.30;;;;;;;;;;5027925;28;20299;-68
2022/03/31 11:12:28;;;;;;;25.50;13.87;;;;;;;;;;5026907;28;20192;-68
2022/03/31 11:15:00;;;;;;;26.10;13.77;;;;;;;;;;5026254;28;20190;-68
2022/03/31 11:17:26;;;;;;;23.50;14.47;;;;;;;;;;5025641;28;20284;-68
2022/03/31 11:19:53;;;;;;;25.37;13.87;;;;;;;;;;5027752;28;20190;-68
2022/03/31 11:22:23;;;;;;;25.77;14.93;;;;;;;;;;5026076;28;20190;-68
2022/03/31 11:24:50;;;;;;;24.27;14.13;;;;;;;;;;5026952;28;20190;-68
2022/03/31 11:27:17;;;;;;;24.03;14.23;;;;;;;;;;5029151;28;20240;-68
2022/03/31 11:29:43;;;;;;;25.60;14.90;;;;;;;;;;5026552;28;20190;-68
2022/03/31 11:32:08;;;;;;;25.77;15.23;;;;;;;;;;5029643;28;20229;-68
2022/03/31 11:34:35;;;;;;;24.63;15.50;;;;;;;;;;5027246;28;20684;-68
2022/03/31 11:37:01;;;;;;;26.93;15.23;;;;;;;;;;5029173;28;20206;-68
2022/03/31 11:39:30;;;;;;;27.37;16.40;;;;;;;;;;5029350;28;20269;-68
2022/03/31 11:41:57;;;;;;;28.07;16.43;;;;;;;;;;5027967;28;20209;-68
2022/03/31 11:44:26;;;;;;;27.17;15.73;;;;;;;;;;5026201;28;20190;-68
2022/03/31 11:46:52;;;;;;;29.90;16.17;;;;;;;;;;5024807;28;20185;-68
2022/03/31 11:49:19;;;;;;;26.83;16.43;;;;;;;;;;5025389;28;20272;-67
2022/03/31 11:51:59;;;;;;;26.10;14.93;;;;;;;;;;5024899;28;20182;-68
2022/03/31 11:54:27;;;;;;;29.00;15.13;;;;;;;;;;5025847;28;20236;-69
2022/03/31 11:57:07;;;;;;;20.97;13.27;;;;;;;;;;5025948;28;20217;-69
2022/03/31 11:59:34;;;;;;;20.57;13.17;;;;;;;;;;5025185;28;20213;-69
2022/03/31 12:01:59;;;;;;;22.27;13.07;;;;;;;;;;5027207;28;20629;-69
2022/03/31 12:04:28;;;;;;;21.37;13.47;;;;;;;;;;5026632;28;20229;-69
2022/03/31 12:06:55;;;;;;;22.73;14.20;;;;;;;;;;5026235;28;20287;-69
2022/03/31 12:09:26;;;;;;;23.70;13.73;;;;;;;;;;5026177;28;20225;-69
2022/03/31 12:11:58;;;;;;;25.50;15.00;;;;;;;;;;5028380;28;20264;-69
2022/03/31 12:14:25;;;;;;;26.80;14.60;;;;;;;;;;5024037;28;20278;-69
2022/03/31 12:16:52;;;;;;;24.37;14.20;;;;;;;;;;5026968;28;20198;-69
2022/03/31 12:19:19;;;;;;;21.47;13.40;;;;;;;;;;5023596;28;20217;-69
2022/03/31 12:21:47;;;;;;;21.90;12.70;;;;;;;;;;5026622;28;20251;-69
2022/03/31 12:24:13;;;;;;;19.37;12.00;;;;;;;;;;5024023;28;20185;-68
2022/03/31 12:26:51;;;;;;;18.23;11.50;;;;;;;;;;5026160;28;20266;-69
2022/03/31 12:29:17;;;;;;;20.60;11.90;;;;;;;;;;5018604;28;20183;-69
2022/03/31 12:31:43;;;;;;;15.60;10.53;;;;;;;;;;5018986;28;20205;-69
2022/03/31 12:34:10;;;;;;;19.97;12.00;;;;;;;;;;5029253;28;20269;-69
2022/03/31 12:36:36;;;;;;;16.10;10.00;;;;;;;;;;5020687;28;20252;-69
2022/03/31 12:39:05;;;;;;;17.13;9.93;;;;;;;;;;5023890;28;20216;-70
2022/03/31 12:41:34;;;;;;;16.70;10.77;;;;;;;;;;5023916;28;20223;-70
2022/03/31 12:44:09;;;;;;;17.40;11.00;;;;;;;;;;5026442;28;20182;-71
2022/03/31 12:47:01;;;;;;;20.37;11.87;;;;;;;;;;5026949;28;20177;-72
2022/03/31 12:49:32;;;;;;;17.00;11.37;;;;;;;;;;5023360;28;20714;-72
2022/03/31 12:52:01;;;;;;;20.40;11.70;;;;;;;;;;5023673;28;20236;-72
2022/03/31 12:54:32;;;;;;;21.70;13.13;;;;;;;;;;5022423;28;20240;-72
2022/03/31 12:57:23;;;;;;;20.10;12.93;;;;;;;;;;5025354;28;20199;-73
2022/03/31 13:00:00;;;;;;;20.80;13.20;;;;;;;;;;5023758;28;20197;-73
2022/03/31 13:02:26;;;;;;;20.57;12.50;;;;;;;;;;5025735;28;20190;-73
2022/03/31 13:04:51;;;;;;;24.47;13.63;;;;;;;;;;5023772;28;20182;-73
2022/03/31 13:07:18;;;;;;;20.93;12.87;;;;;;;;;;5017135;28;20226;-73
2022/03/31 13:09:45;;;;;;;24.83;13.93;;;;;;;;;;5024828;28;20208;-73
2022/03/31 13:12:11;;;;;;;24.83;13.53;;;;;;;;;;5022305;28;20653;-72
2022/03/31 13:14:41;;;;;;;25.83;14.80;;;;;;;;;;5023991;28;20185;-72
2022/03/31 13:17:07;;;;;;;27.03;15.87;;;;;;;;;;5025241;28;20829;-73
2022/03/31 13:19:33;;;;;;;28.50;16.80;;;;;;;;;;5023525;28;20229;-72
2022/03/31 13:21:59;;;;;;;31.03;16.53;;;;;;;;;;5024575;28;20182;-76
2022/03/31 13:24:25;;;;;;;30.13;16.43;;;;;;;;;;5020027;28;20199;-72
2022/03/31 13:26:51;;;;;;;30.47;17.50;;;;;;;;;;5023555;28;20355;-71
2022/03/31 13:29:17;;;;;;;30.80;17.60;;;;;;;;;;5026098;28;20186;-70
2022/03/31 13:31:46;;;;;;;32.67;18.73;;;;;;;;;;5021782;28;20206;-70
2022/03/31 13:34:12;;;;;;;30.73;17.67;;;;;;;;;;5024487;28;20189;-70
2022/03/31 13:36:38;;;;;;;37.97;19.20;;;;;;;;;;5023833;28;20190;-69
2022/03/31 13:39:09;;;;;;;34.00;18.50;;;;;;;;;;5023890;28;20470;-70
2022/03/31 13:41:35;;;;;;;42.43;20.20;;;;;;;;;;5020422;28;20177;-70
2022/03/31 13:44:00;;;;;;;48.63;21.57;;;;;;;;;;5022092;28;20183;-69
2022/03/31 13:46:26;;;;;;;52.13;22.27;;;;;;;;;;5023907;28;20200;-69
2022/03/31 13:48:52;;;;;;;51.20;23.37;;;;;;;;;;5025643;28;20672;-68
2022/03/31 13:51:18;;;;;;;66.00;29.57;;;;;;;;;;5022609;28;20194;-68
2022/03/31 13:53:43;;;;;;;71.27;30.73;;;;;;;;;;5014263;28;20178;-69
2022/03/31 13:56:09;;;;;;;63.97;28.37;;;;;;;;;;5013603;28;20182;-68
2022/03/31 14:01:19;;;;;;;71.53;29.63;;;;;;;;;;5026061;28;20208;-69
2022/03/31 14:03:47;;;;;;;68.60;29.67;;;;;;;;;;5023912;28;20431;-68
2022/03/31 14:06:16;;;;;;;56.70;27.10;;;;;;;;;;5022355;28;20306;-67
2022/03/31 14:08:43;;;;;;;58.07;26.83;;;;;;;;;;5022870;28;20209;-67
2022/03/31 14:11:09;;;;;;;53.87;25.90;;;;;;;;;;5020818;28;20190;-67
2022/03/31 14:13:36;;;;;;;54.30;25.93;;;;;;;;;;5025453;28;20186;-67
2022/03/31 14:16:03;;;;;;;53.50;26.00;;;;;;;;;;5021113;28;20300;-68
2022/03/31 14:18:30;;;;;;;52.00;24.73;;;;;;;;;;5025247;28;20296;-68
2022/03/31 14:20:57;;;;;;;47.77;23.13;;;;;;;;;;5025148;28;20230;-68
2022/03/31 14:23:23;;;;;;;46.80;22.83;;;;;;;;;;5023653;28;20244;-68
2022/03/31 14:25:48;;;;;;;42.93;21.67;;;;;;;;;;5024262;28;20212;-68
2022/03/31 14:28:14;;;;;;;46.47;22.57;;;;;;;;;;5023549;28;20289;-68
2022/03/31 14:30:40;;;;;;;39.00;21.20;;;;;;;;;;5022832;28;20224;-68
2022/03/31 14:33:05;;;;;;;38.50;19.90;;;;;;;;;;5025006;28;20642;-67
2022/03/31 14:35:32;;;;;;;34.70;18.83;;;;;;;;;;5024315;28;20187;-67
2022/03/31 14:37:58;;;;;;;38.47;19.23;;;;;;;;;;5025520;28;20264;-67
2022/03/31 14:40:24;;;;;;;34.93;18.17;;;;;;;;;;5024038;28;20197;-68
2022/03/31 14:42:49;;;;;;;34.37;18.37;;;;;;;;;;5021607;28;20509;-68
2022/03/31 14:45:15;;;;;;;31.43;17.87;;;;;;;;;;5025612;28;20189;-68
2022/03/31 14:47:42;;;;;;;34.83;18.83;;;;;;;;;;5017681;28;20182;-69
2022/03/31 14:50:09;;;;;;;38.90;18.30;;;;;;;;;;5022910;28;20258;-68
2022/03/31 14:52:34;;;;;;;34.53;18.87;;;;;;;;;;5025392;28;20182;-69